Flight Track Log - Related Links

Times and Time Zones

All times are in EDT time to prevent confusion due to time zone crossing. See the BJS542 flight status page for this flight to view local times or setup timezone preferences in your user account.

Time Position Orientation Groundspeed Altitude Reporting Facility
EDT Latitude Longitude Course Direction KTS MPH feet Rate Location/Type
Mon 09:06:15 AM 30.3575 -84.2503 128° Southeast 228 262 25,000  Level Jacksonville Center
Mon 09:07:15 AM 30.3292 -84.1656 111° Southeast 248 285 11,300 -4,750 Descending Jacksonville Center
Mon 09:08:15 AM 30.2925 -84.0617 112° Southeast 301 346 15,500 4,150 Climbing Jacksonville Center
Mon 09:09:15 AM 30.2411 -83.9578 120° Southeast 345 397 19,600 3,500 Climbing Jacksonville Center
Mon 09:10:15 AM 30.1772 -83.8561 126° Southeast 374 430 22,500 2,200 Climbing Jacksonville Center
Mon 09:11:00 AM 30.0818 -83.8476 128° Southeast  Level FlightAware Approximate
Mon 09:11:15 AM 30.1069 -83.7450 126° Southeast 403 464 24,000  Level Jacksonville Center
Mon 09:12:15 AM 30.0347 -83.6339 127° Southeast 420 483 25,000 500 Climbing Jacksonville Center
Mon 09:13:15 AM 29.9644 -83.5231 126° Southeast 431 496 25,000  Level Jacksonville Center
Mon 09:14:15 AM 29.8939 -83.4100 126° Southeast 436 502 25,000  Level Jacksonville Center
Mon 09:15:15 AM 29.8233 -83.2994 126° Southeast 436 502 25,000  Level Jacksonville Center
Mon 09:16:15 AM 29.7464 -83.1797 126° Southeast 425 489 25,000  Level Jacksonville Center
Mon 09:17:15 AM 29.6756 -83.0694 126° Southeast 434 499 25,000  Level Jacksonville Center
Mon 09:18:15 AM 29.6067 -82.9594 126° Southeast 434 499 25,000  Level Jacksonville Center
Mon 09:19:15 AM 29.5317 -82.8472 128° Southeast 429 494 25,000  Level Jacksonville Center
Mon 09:20:15 AM 29.4583 -82.7328 126° Southeast 435 501 25,000  Level Jacksonville Center
Mon 09:21:15 AM 29.3894 -82.6233 126° Southeast 435 501 25,000  Level Jacksonville Center
Mon 09:22:15 AM 29.3181 -82.5139 127° Southeast 429 494 25,000  Level Jacksonville Center
Mon 09:23:15 AM 29.2447 -82.4047 128° Southeast 429 494 25,000  Level Jacksonville Center
Mon 09:24:15 AM 29.1753 -82.2956 126° Southeast 429 494 25,000 -200 Level Jacksonville Center
Mon 09:25:15 AM 29.1017 -82.1867 128° Southeast 429 494 24,600 -700 Descending Jacksonville Center
Mon 09:26:15 AM 29.0281 -82.0733 127° Southeast 434 499 23,600 -867 Descending Jacksonville Center
Mon 09:28:15 AM 28.8794 -81.8478 127° Southeast 439 505 22,000 -533 Descending Miami Center
Mon 09:29:15 AM 28.8181 -81.7528 126° Southeast 434 499 22,000  Level Miami Center
Mon 09:30:15 AM 28.7367 -81.6308 127° Southeast 434 499 22,000  Level Miami Center
Mon 09:31:15 AM 28.6669 -81.5286 128° Southeast 424 488 22,000  Level Miami Center
Mon 09:32:15 AM 28.6092 -81.4458 128° Southeast 424 488 22,000  Level Miami Center
Mon 09:33:15 AM 28.5336 -81.3269 126° Southeast 424 488 22,000  Level Miami Center
Mon 09:34:15 AM 28.4508 -81.2386 137° Southeast 412 474 22,000 -100 Level Miami Center
Mon 09:35:15 AM 28.3597 -81.1456 138° Southeast 407 468 21,800 -950 Descending Miami Center
Mon 09:36:15 AM 28.2847 -81.0694 138° Southeast 400 460 20,100 -2,200 Descending Miami Center
Mon 09:37:15 AM 28.2039 -80.9842 137° Southeast 384 442 17,400 -2,550 Descending Miami Center
Mon 09:38:15 AM 28.1389 -80.9181 138° Southeast 354 407 15,000 -2,450 Descending Miami Center
Mon 09:39:15 AM 28.0700 -80.8475 138° Southeast 354 407 12,500 -2,400 Descending Miami Center
Mon 09:40:15 AM 27.9964 -80.7931 147° Southeast 330 380 10,200 -2,150 Descending Miami Center
Mon 09:41:15 AM 27.9267 -80.7483 150° Southeast 301 346 8,200 -2,200 Descending Miami Center
Mon 09:42:15 AM 27.8486 -80.6989 151° Southeast 290 334 5,800 -2,100 Descending Miami Center
Mon 09:43:15 AM 27.7850 -80.6567 150° Southeast 274 315 4,000 -1,750 Descending Miami Center
Mon 09:44:15 AM 27.7275 -80.6172 149° Southeast 257 296 2,300 -1,000 Descending Miami Center
Mon 09:45:15 AM 27.7019 -80.5578 116° Southeast 231 266 2,000 -500 Descending Miami Center
Mon 09:46:15 AM 27.6828 -80.4964 109° East 221 254 1,300 -800 Descending Miami Center
Mon 09:47:15 AM 27.6650 -80.4511 114° Southeast 165 190 400 -900 Descending Miami Center

Login

Don't have an account? Register now (free) for customized features, flight alerts, and more!